createdAt,value
2019-05-12T00:05:45.502Z,5.38
2019-05-12T00:15:47.555Z,5.08
2019-05-12T00:25:45.311Z,4.95
2019-05-12T00:35:45.244Z,4.75
2019-05-12T00:45:45.349Z,4.63
2019-05-12T00:55:47.527Z,4.56
2019-05-12T01:05:45.349Z,4.39
2019-05-12T01:15:45.311Z,4.23
2019-05-12T01:25:45.368Z,4.00
2019-05-12T01:35:45.235Z,3.86
2019-05-12T01:45:45.326Z,3.68
2019-05-12T01:55:45.385Z,3.49
2019-05-12T02:05:45.977Z,3.24
2019-05-12T02:15:45.347Z,3.00
2019-05-12T02:25:45.607Z,2.93
2019-05-12T02:35:46.098Z,2.79
2019-05-12T02:45:45.416Z,2.74
2019-05-12T02:55:45.289Z,2.67
2019-05-12T03:05:45.261Z,2.63
2019-05-12T03:15:45.329Z,2.53
2019-05-12T03:25:45.816Z,2.39
2019-05-12T03:35:52.171Z,2.36
2019-05-12T03:45:45.624Z,2.41
2019-05-12T03:55:46.864Z,2.39
2019-05-12T04:05:45.629Z,2.43
2019-05-12T04:15:46.008Z,2.46
2019-05-12T04:25:52.253Z,2.79
2019-05-12T04:35:45.443Z,3.24
2019-05-12T04:45:45.578Z,3.64
2019-05-12T04:55:45.321Z,3.90
2019-05-12T05:05:45.373Z,3.85
2019-05-12T05:15:45.237Z,4.25
2019-05-12T05:25:45.271Z,5.10
2019-05-12T05:35:45.258Z,6.22
2019-05-12T05:45:45.220Z,7.70
2019-05-12T05:55:45.291Z,8.45
2019-05-12T06:05:45.273Z,7.80
2019-05-12T06:15:45.221Z,7.84
2019-05-12T06:25:49.367Z,7.70
2019-05-12T06:35:45.638Z,7.53
2019-05-12T06:45:45.769Z,8.88
2019-05-12T06:55:45.292Z,9.63
2019-05-12T07:05:45.426Z,9.57
2019-05-12T07:15:45.297Z,10.54
2019-05-12T07:25:45.312Z,11.20
2019-05-12T07:35:45.265Z,12.01
2019-05-12T07:45:45.234Z,11.92
2019-05-12T07:55:49.320Z,12.11
2019-05-12T08:05:45.276Z,12.53
2019-05-12T08:15:49.044Z,12.68
2019-05-12T08:25:45.275Z,14.00
2019-05-12T08:35:45.261Z,13.56
2019-05-12T08:45:45.229Z,13.33
2019-05-12T08:55:45.324Z,14.12
2019-05-12T09:05:45.588Z,14.10
2019-05-12T09:15:45.331Z,13.39
2019-05-12T09:25:48.324Z,13.30
2019-05-12T09:35:45.464Z,14.54
2019-05-12T09:45:52.073Z,12.94
2019-05-12T09:55:45.318Z,12.89
2019-05-12T10:05:45.282Z,13.30
2019-05-12T10:15:45.336Z,14.64
2019-05-12T10:25:45.519Z,15.77
2019-05-12T10:35:45.322Z,15.09
2019-05-12T10:45:45.353Z,16.79
2019-05-12T10:55:45.305Z,15.12
2019-05-12T11:05:45.301Z,14.88
2019-05-12T11:15:49.443Z,15.42
2019-05-12T11:25:45.420Z,15.82
2019-05-12T11:35:45.411Z,14.68
2019-05-12T11:45:45.359Z,15.00
2019-05-12T11:55:45.445Z,15.52
2019-05-12T12:05:45.293Z,15.86
2019-05-12T12:15:45.362Z,18.11
2019-05-12T12:25:48.739Z,16.75
2019-05-12T12:35:45.300Z,15.42
2019-05-12T12:45:45.384Z,16.15
2019-05-12T12:55:45.392Z,16.77
2019-05-12T13:05:45.413Z,15.59
2019-05-12T13:15:45.332Z,17.13
2019-05-12T13:25:50.513Z,17.35
2019-05-12T13:35:45.329Z,17.96
2019-05-12T13:45:45.525Z,17.27
2019-05-12T13:55:49.371Z,17.45
2019-05-12T14:05:50.312Z,16.98
2019-05-12T14:15:45.390Z,15.34
2019-05-12T14:25:45.461Z,14.54
2019-05-12T14:35:46.086Z,14.47
2019-05-12T14:45:45.353Z,14.55
2019-05-12T14:55:45.314Z,16.32
2019-05-12T15:05:47.283Z,15.65
2019-05-12T15:15:50.188Z,14.30
2019-05-12T15:25:45.410Z,14.24
2019-05-12T15:35:45.513Z,14.19
2019-05-12T15:45:49.014Z,16.43
2019-05-12T15:55:46.437Z,15.31
2019-05-12T16:05:45.496Z,14.78
2019-05-12T16:15:49.337Z,14.38
2019-05-12T16:25:45.341Z,13.73
2019-05-12T16:35:45.386Z,13.68
2019-05-12T16:45:45.382Z,13.67
2019-05-12T16:55:49.625Z,13.87
2019-05-12T17:05:50.112Z,14.29
2019-05-12T17:15:48.792Z,14.02
2019-05-12T17:25:46.064Z,14.23
2019-05-12T17:35:45.387Z,14.24
2019-05-12T17:45:45.374Z,13.99
2019-05-12T17:55:50.793Z,13.24
2019-05-12T18:05:48.121Z,12.82
2019-05-12T18:15:45.347Z,12.62
2019-05-12T18:25:45.318Z,12.60
2019-05-12T18:35:45.391Z,12.55
2019-05-12T18:45:48.881Z,12.38
2019-05-12T18:55:45.404Z,12.19
2019-05-12T19:05:45.376Z,11.78
2019-05-12T19:15:45.325Z,11.29
2019-05-12T19:25:45.439Z,10.77
2019-05-12T19:35:50.496Z,10.25
2019-05-12T19:45:45.345Z,9.70
2019-05-12T19:55:45.462Z,9.20
2019-05-12T20:05:45.429Z,8.80
2019-05-12T20:15:45.399Z,8.60
2019-05-12T20:25:45.388Z,8.37
2019-05-12T20:35:49.050Z,8.08
2019-05-12T20:45:45.894Z,7.85
2019-05-12T20:55:45.370Z,7.74
2019-05-12T21:05:45.330Z,7.44
2019-05-12T21:15:45.869Z,7.19
2019-05-12T21:25:52.418Z,7.37
2019-05-12T21:35:46.256Z,7.62
2019-05-12T21:45:45.401Z,7.70
2019-05-12T21:55:45.379Z,7.72
2019-05-12T22:05:51.378Z,7.87
2019-05-12T22:15:45.333Z,7.86
2019-05-12T22:25:49.119Z,7.94
2019-05-12T22:35:45.386Z,8.03
2019-05-12T22:45:49.143Z,7.91
2019-05-12T22:55:45.333Z,7.67
2019-05-12T23:05:50.709Z,7.38
2019-05-12T23:15:49.293Z,6.97
2019-05-12T23:25:45.408Z,6.48
2019-05-12T23:35:45.328Z,6.24
2019-05-12T23:45:45.483Z,5.91
2019-05-12T23:55:45.359Z,5.79
